Time;durP1;ratioP1;P1;durP2;ratioP2;P2;SDS_P1;SDS_P2;PMS_P1;PMS_P2;Temp;Humidity;BMP_temperature;BMP_pressure;BME280_temperature;BME280_humidity;BME280_pressure;Samples;Min_cycle;Max_cycle;Signal;HPM_P1;HPM_P2
2022/08/24 00:01:27;;;;;;;2.03;1.20;;;16.00;99.90;;;;;;5005905;28;20198;-70
2022/08/24 00:06:53;;;;;;;2.77;0.90;;;16.20;99.90;;;;;;4983322;28;20241;-69
2022/08/24 00:09:21;;;;;;;2.47;1.07;;;16.30;99.90;;;;;;4979099;28;20222;-72
2022/08/24 00:11:48;;;;;;;4.17;1.03;;;16.20;99.90;;;;;;4994142;28;20658;-69
2022/08/24 00:14:16;;;;;;;1.67;0.80;;;16.20;99.90;;;;;;4976418;28;20186;-71
2022/08/24 00:16:44;;;;;;;3.50;0.93;;;16.60;99.90;;;;;;4993228;28;20218;-71
2022/08/24 00:19:12;;;;;;;2.83;1.00;;;17.20;99.90;;;;;;4974555;28;20188;-69
2022/08/24 00:21:40;;;;;;;4.00;1.17;;;17.10;99.90;;;;;;4990194;28;20266;-71
2022/08/24 00:24:08;;;;;;;3.97;0.70;;;17.30;99.90;;;;;;4994039;28;20186;-71
2022/08/24 00:26:37;;;;;;;2.23;1.03;;;16.90;99.60;;;;;;4994049;28;20197;-72
2022/08/24 00:29:05;;;;;;;2.23;0.90;;;16.50;99.90;;;;;;4974866;28;20187;-72
2022/08/24 00:31:33;;;;;;;1.70;0.77;;;16.70;99.90;;;;;;4974065;28;20182;-69
2022/08/24 00:34:01;;;;;;;3.37;0.87;;;16.90;99.90;;;;;;4974117;28;20640;-70
2022/08/24 00:36:29;;;;;;;1.63;1.00;;;16.80;99.90;;;;;;4974220;28;20202;-72
2022/08/24 00:38:56;;;;;;;2.67;1.10;;;17.10;99.90;;;;;;4990857;28;20186;-70
2022/08/24 00:41:25;;;;;;;3.33;1.20;;;17.00;99.90;;;;;;4993885;28;20189;-70
2022/08/24 00:43:57;;;;;;;2.17;1.00;;;16.90;99.90;;;;;;4993779;28;20622;-72
2022/08/24 00:46:33;;;;;;;3.63;0.93;;;17.30;99.90;;;;;;4993840;28;20555;-68
2022/08/24 00:49:07;;;;;;;1.67;0.77;;;17.30;99.90;;;;;;4975597;28;20277;-70
2022/08/24 00:51:51;;;;;;;3.37;0.83;;;17.50;99.90;;;;;;4974358;28;20234;-71
2022/08/24 00:54:19;;;;;;;3.77;1.10;;;18.00;99.90;;;;;;4981218;28;20662;-72
2022/08/24 00:56:56;;;;;;;2.40;1.20;;;18.30;99.80;;;;;;4974166;28;20210;-72
2022/08/24 00:59:40;;;;;;;3.90;1.10;;;17.90;98.30;;;;;;4956671;28;20189;-73
2022/08/24 01:02:14;;;;;;;2.73;1.10;;;18.20;98.70;;;;;;4988063;28;20264;-70
2022/08/24 01:04:50;;;;;;;2.50;0.80;;;18.80;99.50;;;;;;4993361;28;20240;-72
2022/08/24 01:07:24;;;;;;;2.27;1.17;;;18.50;95.00;;;;;;4993486;28;20174;-72
2022/08/24 01:09:54;;;;;;;3.90;1.00;;;18.00;94.30;;;;;;4993217;28;20189;-71
2022/08/24 01:12:27;;;;;;;2.63;0.90;;;17.90;96.80;;;;;;4954637;28;20256;-69
2022/08/24 01:15:00;;;;;;;1.73;0.90;;;18.00;97.20;;;;;;4954344;29;20195;-71
2022/08/24 01:20:15;;;;;;;2.00;0.83;;;18.20;96.80;;;;;;4954426;29;20262;-72
2022/08/24 01:23:08;;;;;;;7.93;1.67;;;18.00;98.80;;;;;;4954311;28;20202;-73
2022/08/24 01:25:37;;;;;;;1.90;0.83;;;18.60;94.80;;;;;;4952873;29;20187;-73
2022/08/24 01:28:12;;;;;;;2.27;0.80;;;18.80;94.80;;;;;;4952909;28;20279;-69
2022/08/24 01:30:40;;;;;;;3.90;0.90;;;18.70;93.30;;;;;;4954246;28;20185;-70
2022/08/24 01:33:09;;;;;;;1.83;0.90;;;18.90;92.20;;;;;;4972864;28;20221;-71
2022/08/24 01:35:38;;;;;;;5.20;1.03;;;18.90;93.50;;;;;;4974006;28;20188;-70
2022/08/24 01:38:11;;;;;;;2.83;1.20;;;18.80;90.70;;;;;;4990031;28;20218;-71
2022/08/24 01:41:00;;;;;;;1.10;0.80;;;18.70;91.80;;;;;;4990382;28;20198;-73
2022/08/24 01:43:29;;;;;;;1.63;0.90;;;18.90;92.80;;;;;;4970621;28;20202;-70
2022/08/24 01:46:00;;;;;;;1.87;1.07;;;19.30;94.10;;;;;;4991959;28;20647;-70
2022/08/24 01:48:28;;;;;;;1.93;0.90;;;19.40;93.00;;;;;;4987513;28;20531;-70
2022/08/24 01:50:55;;;;;;;2.37;0.80;;;19.30;90.00;;;;;;4966243;28;20191;-71
2022/08/24 01:53:24;;;;;;;1.57;0.80;;;19.30;91.20;;;;;;4984743;28;20270;-73
2022/08/24 01:55:53;;;;;;;2.00;0.90;;;19.30;93.50;;;;;;4956712;28;20545;-73
2022/08/24 01:58:21;;;;;;;2.73;0.90;;;19.20;89.70;;;;;;4984422;28;20348;-69
2022/08/24 02:00:50;;;;;;;1.63;0.87;;;20.00;93.70;;;;;;4975326;28;20718;-72
2022/08/24 02:03:19;;;;;;;1.70;0.80;;;19.50;90.00;;;;;;4974039;28;20643;-72
2022/08/24 02:05:47;;;;;;;3.70;1.00;;;19.00;87.00;;;;;;4977788;28;20190;-72
2022/08/24 02:08:15;;;;;;;2.83;0.80;;;18.80;90.00;;;;;;4973366;28;20618;-71
2022/08/24 02:10:42;;;;;;;5.10;0.87;;;19.00;90.00;;;;;;4972845;28;20182;-71
2022/08/24 02:13:11;;;;;;;2.43;0.90;;;19.50;91.40;;;;;;4983495;28;20196;-70
2022/08/24 02:15:40;;;;;;;2.30;1.00;;;19.60;89.60;;;;;;4982035;28;20535;-69
2022/08/24 02:18:10;;;;;;;3.53;0.90;;;19.30;87.50;;;;;;4980701;28;20238;-70
2022/08/24 02:20:38;;;;;;;2.27;0.80;;;19.10;90.00;;;;;;4973782;28;20180;-72
2022/08/24 02:23:07;;;;;;;1.97;0.90;;;19.60;92.50;;;;;;4972244;28;20635;-70
2022/08/24 02:25:36;;;;;;;2.50;1.00;;;19.70;86.80;;;;;;4984369;28;20197;-71
2022/08/24 02:28:04;;;;;;;2.93;0.80;;;19.80;84.80;;;;;;4962217;28;20287;-69
2022/08/24 02:30:32;;;;;;;1.93;0.70;;;20.10;84.20;;;;;;4974002;28;20184;-72
2022/08/24 02:33:03;;;;;;;2.23;0.90;;;19.70;85.00;;;;;;4973552;28;20184;-69
2022/08/24 02:35:32;;;;;;;2.77;1.07;;;19.50;82.20;;;;;;4957396;28;20184;-72
2022/08/24 02:38:00;;;;;;;3.33;0.90;;;19.70;83.70;;;;;;4972506;28;20219;-71
2022/08/24 02:40:28;;;;;;;0.80;0.70;;;20.00;90.50;;;;;;4955836;28;20187;-71
2022/08/24 02:42:56;;;;;;;2.03;0.90;;;20.40;83.50;;;;;;4972780;28;20179;-72
2022/08/24 02:45:24;;;;;;;2.20;0.80;;;20.20;81.50;;;;;;4971215;28;20195;-70
2022/08/24 02:47:52;;;;;;;1.57;0.73;;;20.30;80.80;;;;;;4972531;28;20193;-70
2022/08/24 02:50:20;;;;;;;1.37;0.80;;;20.40;85.90;;;;;;4972560;28;20191;-72
2022/08/24 02:52:48;;;;;;;1.83;0.97;;;20.50;79.40;;;;;;4982866;28;20582;-70
2022/08/24 02:55:19;;;;;;;3.50;0.90;;;20.10;79.70;;;;;;4991243;28;20602;-70
2022/08/24 02:57:48;;;;;;;2.47;0.80;;;20.00;78.90;;;;;;4991769;28;20215;-73
2022/08/24 03:00:19;;;;;;;1.90;0.77;;;19.80;78.60;;;;;;4991964;28;20207;-69
2022/08/24 03:02:46;;;;;;;1.33;0.80;;;19.80;78.20;;;;;;4965144;28;20209;-73
2022/08/24 03:05:16;;;;;;;2.60;0.70;;;19.70;76.70;;;;;;4989015;28;20182;-73
2022/08/24 03:07:45;;;;;;;3.23;0.83;;;19.60;77.20;;;;;;4995326;28;20264;-71
2022/08/24 03:10:13;;;;;;;1.60;0.87;;;19.60;76.10;;;;;;4995534;28;20179;-70
2022/08/24 03:12:41;;;;;;;3.77;0.90;;;19.40;76.10;;;;;;4977885;28;20191;-71
2022/08/24 03:15:10;;;;;;;1.47;0.90;;;19.90;77.90;;;;;;4995533;28;20182;-69
2022/08/24 03:17:41;;;;;;;2.63;0.80;;;19.80;73.90;;;;;;4995303;28;20218;-69
2022/08/24 03:20:14;;;;;;;1.03;0.73;;;20.10;79.30;;;;;;4995377;28;20274;-70
2022/08/24 03:22:52;;;;;;;2.00;0.80;;;20.40;77.10;;;;;;4983368;28;20560;-69
2022/08/24 03:25:26;;;;;;;1.87;0.60;;;20.20;73.60;;;;;;4990580;28;20725;-71
2022/08/24 03:27:54;;;;;;;3.90;0.90;;;19.80;73.60;;;;;;4986645;28;20201;-70
2022/08/24 03:30:23;;;;;;;2.00;0.70;;;19.90;74.40;;;;;;4993170;28;20179;-70
2022/08/24 03:32:51;;;;;;;1.60;0.70;;;20.00;71.80;;;;;;4995249;28;20235;-70
2022/08/24 03:35:21;;;;;;;1.90;0.70;;;19.60;72.40;;;;;;4995218;28;20197;-71
2022/08/24 03:37:50;;;;;;;2.00;0.77;;;19.50;76.20;;;;;;4980781;28;20222;-69
2022/08/24 03:40:22;;;;;;;2.47;0.90;;;20.00;80.60;;;;;;4975490;28;20185;-71
2022/08/24 03:42:53;;;;;;;0.70;0.60;;;20.00;76.60;;;;;;4975426;28;20206;-69
2022/08/24 03:45:22;;;;;;;0.90;0.60;;;20.00;79.50;;;;;;4988243;28;20188;-72
2022/08/24 03:47:50;;;;;;;1.20;0.70;;;20.20;75.60;;;;;;4963403;28;20197;-69
2022/08/24 03:50:23;;;;;;;2.20;0.70;;;20.20;74.10;;;;;;4975416;28;20185;-69
2022/08/24 03:52:51;;;;;;;1.87;0.90;;;20.20;72.90;;;;;;4975478;28;20232;-70
2022/08/24 03:55:19;;;;;;;1.73;0.70;;;20.00;72.00;;;;;;4975136;28;20235;-69
2022/08/24 03:57:52;;;;;;;1.17;0.70;;;19.60;72.60;;;;;;4988308;28;20228;-71
2022/08/24 04:00:20;;;;;;;0.90;0.60;;;19.70;75.60;;;;;;4994728;28;20526;-71
2022/08/24 04:02:52;;;;;;;1.03;0.60;;;19.70;75.60;;;;;;4994665;28;20221;-72
2022/08/24 04:05:21;;;;;;;4.43;1.23;;;19.60;76.10;;;;;;4994739;28;20711;-73
2022/08/24 04:07:49;;;;;;;2.03;0.70;;;19.60;75.30;;;;;;4982269;28;20227;-72
2022/08/24 04:10:18;;;;;;;5.07;0.70;;;19.80;74.40;;;;;;4976214;28;20180;-70
2022/08/24 04:12:46;;;;;;;0.80;0.70;;;19.70;73.70;;;;;;4976343;28;20196;-70
2022/08/24 04:15:13;;;;;;;0.70;0.53;;;19.70;71.10;;;;;;4975386;28;20191;-68
2022/08/24 04:17:41;;;;;;;0.90;0.50;;;19.50;68.80;;;;;;4987446;28;20221;-71
2022/08/24 04:20:09;;;;;;;1.00;0.60;;;19.80;70.60;;;;;;4995246;28;20214;-70
2022/08/24 04:22:42;;;;;;;0.83;0.60;;;20.10;73.60;;;;;;4990303;28;20187;-68
2022/08/24 04:25:11;;;;;;;1.17;0.57;;;20.30;73.40;;;;;;4977711;28;20300;-68
2022/08/24 04:27:40;;;;;;;2.13;0.70;;;19.90;70.20;;;;;;4995534;28;20180;-70
2022/08/24 04:30:09;;;;;;;2.00;0.70;;;19.70;69.60;;;;;;4995404;28;20693;-68
2022/08/24 04:32:39;;;;;;;2.73;0.90;;;19.90;68.70;;;;;;4995458;28;20631;-69
2022/08/24 04:35:10;;;;;;;1.33;0.60;;;20.10;70.40;;;;;;4995257;28;20206;-69
2022/08/24 04:37:38;;;;;;;1.37;0.50;;;19.70;68.80;;;;;;4995300;28;20211;-69
2022/08/24 04:40:17;;;;;;;2.10;0.83;;;19.50;69.40;;;;;;4995369;28;20191;-69
2022/08/24 04:42:49;;;;;;;1.83;0.70;;;19.30;65.40;;;;;;4995473;28;20375;-71
2022/08/24 04:45:16;;;;;;;1.27;0.60;;;19.30;66.10;;;;;;4995349;28;20175;-68
2022/08/24 04:47:45;;;;;;;1.67;0.70;;;19.30;67.70;;;;;;4995018;28;20182;-70
2022/08/24 04:50:14;;;;;;;0.80;0.60;;;19.50;66.90;;;;;;4977663;28;20219;-69
2022/08/24 04:52:42;;;;;;;1.33;0.50;;;19.50;66.60;;;;;;4995141;28;20179;-68
2022/08/24 04:55:10;;;;;;;0.40;0.40;;;19.60;65.30;;;;;;4994848;28;20174;-69
2022/08/24 04:57:41;;;;;;;1.57;0.73;;;19.70;68.00;;;;;;4994808;28;20265;-70
2022/08/24 05:00:30;;;;;;;1.03;0.67;;;19.60;63.50;;;;;;4995262;28;20176;-70
2022/08/24 05:03:00;;;;;;;1.10;0.50;;;19.60;66.10;;;;;;4977098;28;20737;-69
2022/08/24 05:05:28;;;;;;;0.60;0.60;;;19.40;64.10;;;;;;4994664;28;20219;-72
2022/08/24 05:07:56;;;;;;;2.33;0.80;;;19.30;64.00;;;;;;4994582;28;20703;-69
2022/08/24 05:10:24;;;;;;;2.10;0.70;;;19.20;66.60;;;;;;4994836;28;20180;-69
2022/08/24 05:12:52;;;;;;;0.97;0.60;;;19.00;64.50;;;;;;4994695;28;20186;-69
2022/08/24 05:15:19;;;;;;;0.97;0.57;;;18.70;66.30;;;;;;4995461;28;20186;-70
2022/08/24 05:17:47;;;;;;;1.70;0.80;;;18.60;66.90;;;;;;4995822;28;20240;-69
2022/08/24 05:20:15;;;;;;;1.20;0.80;;;18.40;63.70;;;;;;4996178;28;20736;-70
2022/08/24 05:22:43;;;;;;;1.07;0.50;;;18.40;65.70;;;;;;4994411;28;20256;-67
2022/08/24 05:25:11;;;;;;;1.40;0.60;;;18.40;66.10;;;;;;4994185;28;20280;-68
2022/08/24 05:27:39;;;;;;;0.87;0.50;;;18.40;67.50;;;;;;4994220;28;20182;-70
2022/08/24 05:30:07;;;;;;;1.00;0.60;;;18.40;67.20;;;;;;4994246;28;20179;-71
2022/08/24 05:32:35;;;;;;;2.03;0.67;;;18.40;67.50;;;;;;4994367;28;20183;-68
2022/08/24 05:35:03;;;;;;;1.10;0.60;;;18.30;70.00;;;;;;4994063;28;20194;-70
2022/08/24 05:37:35;;;;;;;0.97;0.50;;;18.40;72.40;;;;;;4994137;28;20210;-69
2022/08/24 05:40:06;;;;;;;1.10;0.80;;;18.50;70.20;;;;;;4976969;28;20213;-71
2022/08/24 05:42:35;;;;;;;1.90;0.77;;;18.30;64.70;;;;;;4992521;28;20191;-70
2022/08/24 05:45:03;;;;;;;0.57;0.50;;;18.20;65.00;;;;;;4974871;28;20185;-69
2022/08/24 05:47:31;;;;;;;0.70;0.50;;;18.30;66.60;;;;;;4976480;28;20195;-68
2022/08/24 05:49:59;;;;;;;0.60;0.53;;;18.20;67.10;;;;;;4974589;28;20189;-72
2022/08/24 05:52:28;;;;;;;1.47;0.70;;;18.10;67.80;;;;;;4975219;28;20191;-71
2022/08/24 05:54:58;;;;;;;0.97;0.60;;;18.20;67.10;;;;;;4975032;28;20187;-70
2022/08/24 05:57:30;;;;;;;3.20;0.73;;;18.10;65.60;;;;;;4979022;28;20206;-69
2022/08/24 05:59:59;;;;;;;1.53;0.60;;;18.10;66.70;;;;;;4991364;28;20218;-69
2022/08/24 06:02:28;;;;;;;0.50;0.50;;;18.00;64.60;;;;;;4974501;28;20202;-70
2022/08/24 06:04:58;;;;;;;1.73;0.60;;;17.80;66.70;;;;;;4980268;28;20234;-69
2022/08/24 06:07:27;;;;;;;1.33;0.70;;;17.70;67.30;;;;;;4988484;28;20616;-69
2022/08/24 06:09:58;;;;;;;0.77;0.50;;;17.70;70.00;;;;;;4986442;28;20210;-68
2022/08/24 06:12:26;;;;;;;2.57;0.70;;;17.60;67.30;;;;;;4972866;28;20191;-69
2022/08/24 06:14:55;;;;;;;2.30;0.63;;;17.50;70.10;;;;;;4972851;28;20175;-69
2022/08/24 06:17:22;;;;;;;1.13;0.60;;;17.40;71.30;;;;;;4972886;28;20261;-70
2022/08/24 06:19:50;;;;;;;2.90;0.77;;;17.30;71.00;;;;;;4972813;28;20594;-70
2022/08/24 06:22:18;;;;;;;0.63;0.50;;;17.40;71.50;;;;;;4979966;28;20185;-71
2022/08/24 06:27:31;;;;;;;1.37;0.60;;;17.30;70.80;;;;;;4992036;28;20240;-70
2022/08/24 06:30:09;;;;;;;0.67;0.50;;;17.30;69.60;;;;;;4992183;28;20174;-70
2022/08/24 06:32:38;;;;;;;2.67;0.80;;;17.30;71.80;;;;;;4992245;28;20179;-70
2022/08/24 06:35:09;;;;;;;4.47;0.80;;;17.30;73.80;;;;;;4976768;28;20278;-70
2022/08/24 06:37:37;;;;;;;1.03;0.60;;;17.20;72.10;;;;;;4957435;28;20223;-70
2022/08/24 06:40:06;;;;;;;1.60;0.73;;;17.20;73.80;;;;;;4976566;28;20243;-71
2022/08/24 06:42:34;;;;;;;1.17;0.60;;;17.20;74.60;;;;;;4977413;28;20245;-70
2022/08/24 06:45:02;;;;;;;2.10;0.77;;;17.20;74.00;;;;;;4976370;28;20223;-71
2022/08/24 06:47:29;;;;;;;2.97;0.60;;;17.10;76.20;;;;;;4976393;28;20218;-71
2022/08/24 06:49:59;;;;;;;2.27;0.80;;;17.10;73.90;;;;;;4959120;28;20588;-70
2022/08/24 06:52:27;;;;;;;1.00;0.60;;;17.20;74.90;;;;;;4989397;28;20190;-71
2022/08/24 06:55:00;;;;;;;1.53;0.70;;;17.20;74.60;;;;;;4987218;28;20191;-71
2022/08/24 06:57:31;;;;;;;2.80;0.90;;;17.10;72.70;;;;;;4982368;28;20640;-71
2022/08/24 06:59:58;;;;;;;0.77;0.70;;;17.00;74.10;;;;;;5017799;28;20209;-70
2022/08/24 07:02:26;;;;;;;1.60;0.70;;;16.90;76.60;;;;;;4983835;28;20187;-71
2022/08/24 07:04:57;;;;;;;0.60;0.60;;;16.70;75.40;;;;;;4976501;28;20183;-70
2022/08/24 07:07:25;;;;;;;1.40;0.60;;;16.60;77.20;;;;;;4976173;28;20179;-71
2022/08/24 07:09:54;;;;;;;1.20;0.93;;;16.50;81.30;;;;;;4976729;28;20183;-71
2022/08/24 07:12:23;;;;;;;2.03;0.90;;;16.40;82.50;;;;;;4987910;28;20221;-71
2022/08/24 07:14:51;;;;;;;1.17;0.70;;;16.30;87.10;;;;;;4977757;28;20190;-70
2022/08/24 07:17:18;;;;;;;1.97;0.80;;;16.20;91.60;;;;;;4977870;28;20329;-71
2022/08/24 07:19:50;;;;;;;1.00;0.83;;;16.10;91.70;;;;;;4977690;28;20252;-70
2022/08/24 07:22:17;;;;;;;3.63;0.80;;;16.00;91.60;;;;;;4993751;28;20189;-70
2022/08/24 07:24:45;;;;;;;78.27;53.63;;;15.80;94.00;;;;;;4994525;28;20192;-71
2022/08/24 07:27:13;;;;;;;161.00;111.87;;;15.60;97.90;;;;;;4987052;28;20183;-71
2022/08/24 07:29:41;;;;;;;271.93;196.87;;;15.40;99.90;;;;;;4975425;28;20187;-70
2022/08/24 07:32:11;;;;;;;202.13;151.77;;;15.20;99.90;;;;;;4989203;28;20193;-71
2022/08/24 07:34:42;;;;;;;61.17;40.70;;;15.00;99.90;;;;;;4994625;28;20280;-68
2022/08/24 07:37:10;;;;;;;47.37;33.37;;;14.80;99.90;;;;;;4994903;28;20209;-71
2022/08/24 07:39:43;;;;;;;25.53;14.97;;;14.70;99.90;;;;;;4994863;28;20186;-70
2022/08/24 07:42:14;;;;;;;21.57;12.73;;;14.50;99.90;;;;;;4980523;28;20183;-70
2022/08/24 07:44:43;;;;;;;11.77;6.53;;;14.40;99.90;;;;;;4975424;28;20182;-71
2022/08/24 07:47:12;;;;;;;6.73;4.53;;;14.20;99.90;;;;;;4976241;28;20273;-71
2022/08/24 07:49:41;;;;;;;8.40;5.00;;;14.00;99.90;;;;;;4981250;28;20519;-69
2022/08/24 07:52:09;;;;;;;8.13;4.97;;;13.90;99.90;;;;;;4975605;28;20253;-70
2022/08/24 07:54:37;;;;;;;11.50;6.67;;;13.80;99.90;;;;;;4943997;28;20194;-70
2022/08/24 07:57:07;;;;;;;10.23;6.43;;;13.70;99.90;;;;;;4975006;28;21069;-69
2022/08/24 07:59:38;;;;;;;6.07;3.87;;;13.50;99.90;;;;;;4957918;28;20277;-70
2022/08/24 08:02:07;;;;;;;4.27;1.90;;;13.50;99.90;;;;;;4978749;28;20216;-69
2022/08/24 08:04:34;;;;;;;3.17;1.93;;;13.50;99.90;;;;;;4994506;28;20188;-70
2022/08/24 08:07:06;;;;;;;17.80;11.03;;;13.50;99.90;;;;;;4994279;28;20238;-70
2022/08/24 08:09:39;;;;;;;32.87;21.33;;;13.50;99.90;;;;;;4994123;28;20221;-69
2022/08/24 08:12:10;;;;;;;20.83;13.50;;;13.60;99.90;;;;;;4984477;28;20194;-70
2022/08/24 08:14:38;;;;;;;9.60;6.53;;;13.70;99.90;;;;;;4974993;28;20185;-70
2022/08/24 08:17:06;;;;;;;9.60;5.60;;;13.60;99.90;;;;;;4988273;28;20224;-69
2022/08/24 08:19:37;;;;;;;11.33;4.80;;;13.60;99.90;;;;;;4982799;28;20254;-70
2022/08/24 08:24:52;;;;;;;6.43;2.27;;;13.50;99.90;;;;;;4976877;28;20187;-69
2022/08/24 08:27:20;;;;;;;9.30;3.50;;;13.50;99.90;;;;;;4989664;28;20603;-68
2022/08/24 08:29:52;;;;;;;7.13;2.63;;;13.40;99.90;;;;;;4974834;28;20557;-69
2022/08/24 08:32:20;;;;;;;11.83;5.50;;;13.30;99.90;;;;;;4974667;28;20555;-69
2022/08/24 08:34:48;;;;;;;7.50;3.60;;;13.20;99.90;;;;;;4974732;28;20207;-70
2022/08/24 08:37:16;;;;;;;7.70;3.30;;;13.10;99.90;;;;;;4955144;28;20268;-70
2022/08/24 08:39:44;;;;;;;11.10;4.03;;;12.90;99.90;;;;;;4937846;29;20230;-69
2022/08/24 08:42:28;;;;;;;13.73;7.00;;;12.80;99.90;;;;;;4955105;28;20181;-69
2022/08/24 08:45:02;;;;;;;10.60;4.20;;;12.70;99.90;;;;;;4937957;29;20190;-69
2022/08/24 08:48:21;;;;;;;9.10;3.07;;;12.60;99.90;;;;;;4969689;28;20454;-69
2022/08/24 08:51:10;;;;;;;8.27;3.13;;;12.50;99.90;;;;;;4934879;29;20200;-70
2022/08/24 08:54:11;;;;;;;5.17;2.30;;;12.50;99.90;;;;;;4969610;28;20223;-68
2022/08/24 08:57:14;;;;;;;5.57;2.27;;;12.50;99.90;;;;;;4954563;29;20203;-69
2022/08/24 09:00:12;;;;;;;6.50;2.50;;;12.60;99.90;;;;;;4918341;28;20295;-70
2022/08/24 09:03:08;;;;;;;4.67;2.37;;;12.60;99.90;;;;;;4955031;28;20184;-69
2022/08/24 09:06:04;;;;;;;4.77;2.33;;;12.60;99.90;;;;;;4954572;29;20185;-71
2022/08/24 09:08:50;;;;;;;4.27;1.97;;;12.70;99.90;;;;;;4954436;29;20640;-68
2022/08/24 09:11:47;;;;;;;3.00;1.93;;;12.80;99.90;;;;;;4954531;28;20262;-70
2022/08/24 09:14:47;;;;;;;5.10;2.13;;;12.80;99.90;;;;;;4954480;28;20209;-68
2022/08/24 09:17:56;;;;;;;3.20;1.50;;;12.90;99.90;;;;;;4963511;28;20409;-69
2022/08/24 09:20:52;;;;;;;2.80;1.60;;;13.00;99.90;;;;;;4930971;29;20582;-70
2022/08/24 09:23:33;;;;;;;5.57;1.70;;;13.00;99.90;;;;;;4970687;28;20197;-69
2022/08/24 09:26:29;;;;;;;1.57;1.43;;;13.00;99.90;;;;;;4975405;28;20195;-70
2022/08/24 09:29:10;;;;;;;1.30;1.00;;;13.00;99.90;;;;;;4974322;28;20187;-70
2022/08/24 09:32:33;;;;;;;2.30;1.30;;;13.00;99.90;;;;;;4973760;28;20230;-71
2022/08/24 09:35:31;;;;;;;2.37;1.00;;;12.90;99.90;;;;;;4924217;29;20213;-71
2022/08/24 09:38:30;;;;;;;1.53;0.90;;;12.80;99.90;;;;;;4916765;29;20609;-71
2022/08/24 09:42:04;;;;;;;3.37;0.80;;;12.70;99.90;;;;;;4932677;29;20307;-71
2022/08/24 09:45:25;;;;;;;3.90;1.00;;;12.70;99.90;;;;;;4935493;29;20239;-71
2022/08/24 09:48:25;;;;;;;2.93;1.23;;;12.70;99.90;;;;;;4868362;29;20233;-70
2022/08/24 09:51:23;;;;;;;1.70;1.00;;;12.60;99.90;;;;;;4877503;29;20200;-71
2022/08/24 09:54:11;;;;;;;1.83;1.20;;;;;;;;;;4877833;29;20610;-71
2022/08/24 09:57:03;;;;;;;3.67;1.20;;;;;;;;;;4877453;29;20522;-72
2022/08/24 09:59:54;;;;;;;3.07;0.90;;;12.40;99.90;;;;;;4910111;29;20212;-72
2022/08/24 10:02:41;;;;;;;4.23;1.00;;;12.50;99.90;;;;;;4918541;29;20224;-71
2022/08/24 10:05:34;;;;;;;4.73;1.00;;;12.40;99.90;;;;;;4946070;28;20191;-72
2022/08/24 10:08:03;;;;;;;1.47;0.70;;;12.40;99.90;;;;;;4974443;28;20839;-71
2022/08/24 10:10:56;;;;;;;2.93;1.07;;;12.30;99.90;;;;;;4974435;28;20191;-72
2022/08/24 10:13:37;;;;;;;3.80;1.00;;;12.30;99.90;;;;;;4976105;28;20686;-71
2022/08/24 10:16:19;;;;;;;3.13;0.90;;;12.20;99.90;;;;;;4979876;28;20238;-72
2022/08/24 10:19:06;;;;;;;3.07;1.57;;;12.20;99.90;;;;;;4974535;28;20221;-70
2022/08/24 10:22:15;;;;;;;2.50;1.10;;;12.20;99.90;;;;;;4974533;28;20258;-71
2022/08/24 10:24:42;;;;;;;3.47;1.13;;;12.20;99.90;;;;;;4976579;28;20192;-72
2022/08/24 10:27:22;;;;;;;2.60;1.30;;;12.10;99.90;;;;;;4993795;28;20179;-71
2022/08/24 10:30:23;;;;;;;2.97;0.90;;;12.10;99.90;;;;;;4994280;28;20245;-70
2022/08/24 10:33:27;;;;;;;3.13;1.10;;;12.00;99.90;;;;;;4938636;28;20194;-70
2022/08/24 10:36:04;;;;;;;4.73;1.37;;;12.00;99.90;;;;;;4976886;28;20187;-71
2022/08/24 10:42:02;;;;;;;5.13;1.10;;;11.90;99.90;;;;;;4974150;28;20246;-70
2022/08/24 10:45:02;;;;;;;2.80;0.90;;;11.80;99.90;;;;;;4921641;28;20296;-71
2022/08/24 10:47:34;;;;;;;1.83;1.13;;;11.80;99.90;;;;;;4973695;28;20188;-70
2022/08/24 10:50:19;;;;;;;2.80;1.00;;;11.80;99.90;;;;;;4974254;28;20172;-71
2022/08/24 10:52:52;;;;;;;2.43;1.20;;;11.80;99.90;;;;;;4974298;28;20175;-70
2022/08/24 10:55:24;;;;;;;11.37;6.03;;;11.80;99.90;;;;;;4980699;28;20182;-71
2022/08/24 10:57:51;;;;;;;5.33;2.30;;;11.70;99.90;;;;;;4993620;28;20299;-71
2022/08/24 11:00:21;;;;;;;5.60;4.30;;;11.70;99.90;;;;;;4993712;28;20171;-70
2022/08/24 11:02:48;;;;;;;2.33;1.30;;;11.60;99.90;;;;;;4993445;28;20612;-70
2022/08/24 11:05:28;;;;;;;4.23;1.00;;;11.70;99.90;;;;;;4986975;28;20181;-71
2022/08/24 11:08:05;;;;;;;2.80;0.97;;;11.60;99.90;;;;;;4981736;28;20766;-72
2022/08/24 11:10:37;;;;;;;3.67;1.10;;;11.60;99.90;;;;;;4993537;28;20181;-71
2022/08/24 11:13:22;;;;;;;2.00;0.80;;;11.60;99.90;;;;;;4993424;28;20202;-70
2022/08/24 11:15:53;;;;;;;2.73;1.10;;;11.50;99.90;;;;;;4982720;28;20731;-70
2022/08/24 11:18:21;;;;;;;1.97;1.03;;;11.50;99.90;;;;;;4974229;28;20556;-70
2022/08/24 11:20:51;;;;;;;3.13;1.00;;;11.40;99.90;;;;;;4974131;28;20183;-71
2022/08/24 11:23:34;;;;;;;5.03;1.30;;;11.50;99.90;;;;;;4975436;28;20280;-71
2022/08/24 11:26:14;;;;;;;1.93;1.27;;;11.30;99.90;;;;;;4988574;28;20183;-71
2022/08/24 11:28:52;;;;;;;3.67;1.40;;;11.30;99.90;;;;;;4979296;28;20673;-70
2022/08/24 11:31:35;;;;;;;3.80;1.00;;;11.20;99.90;;;;;;4996354;28;20185;-71
2022/08/24 11:34:12;;;;;;;4.07;1.70;;;11.20;99.90;;;;;;4971840;28;20187;-70
2022/08/24 11:36:40;;;;;;;2.57;1.30;;;11.20;99.90;;;;;;4993072;28;20174;-71
2022/08/24 11:39:46;;;;;;;3.60;1.20;;;11.20;99.90;;;;;;4978997;28;20229;-70
2022/08/24 11:42:34;;;;;;;1.67;1.20;;;11.10;99.90;;;;;;4995673;28;20194;-71
2022/08/24 11:45:23;;;;;;;3.07;1.63;;;11.00;99.90;;;;;;4995491;28;20181;-70
2022/08/24 11:48:02;;;;;;;2.57;1.43;;;11.00;99.90;;;;;;4977008;28;20172;-70
2022/08/24 11:50:47;;;;;;;1.87;1.20;;;11.00;99.90;;;;;;4976723;28;20641;-70
2022/08/24 11:53:51;;;;;;;7.10;2.00;;;10.80;99.90;;;;;;4976852;28;20765;-69
2022/08/24 11:56:19;;;;;;;1.70;1.07;;;10.70;99.90;;;;;;4992553;28;20527;-72
2022/08/24 11:59:41;;;;;;;1.50;1.10;;;10.70;99.90;;;;;;4996010;28;20213;-71
2022/08/24 12:02:31;;;;;;;5.27;1.40;;;10.60;99.90;;;;;;4859402;29;20254;-71
2022/08/24 12:05:25;;;;;;;3.37;1.40;;;10.60;99.90;;;;;;4980583;28;20192;-70
2022/08/24 12:08:25;;;;;;;1.80;1.17;;;10.50;99.90;;;;;;4989414;28;20231;-71
2022/08/24 12:11:35;;;;;;;1.17;1.00;;;10.40;99.90;;;;;;4996026;28;20205;-71
2022/08/24 12:14:29;;;;;;;2.30;1.40;;;10.20;99.90;;;;;;4995606;28;20202;-70
2022/08/24 12:17:26;;;;;;;2.77;1.20;;;10.00;99.90;;;;;;4976138;28;20239;-70
2022/08/24 12:20:02;;;;;;;3.80;1.10;;;9.80;99.90;;;;;;4976471;28;20187;-72
2022/08/24 12:22:31;;;;;;;2.33;1.50;;;9.70;99.90;;;;;;4982510;28;20185;-70
2022/08/24 12:26:00;;;;;;;2.47;1.00;;;9.70;99.90;;;;;;4991997;28;20179;-70
2022/08/24 12:27:56;;;;;;;2.67;1.13;;;9.70;99.90;;;;;;4975713;28;20555;-70
2022/08/24 12:30:25;;;;;;;4.90;1.20;;;9.50;99.90;;;;;;4978716;28;20227;-70
2022/08/24 12:33:02;;;;;;;1.67;1.03;;;9.50;99.90;;;;;;4958928;28;20238;-69
2022/08/24 12:35:39;;;;;;;1.83;0.93;;;9.30;99.90;;;;;;4981749;28;20541;-70
2022/08/24 12:38:30;;;;;;;2.60;1.10;;;9.30;99.90;;;;;;4994917;28;20753;-70
2022/08/24 12:41:12;;;;;;;3.30;1.00;;;9.20;99.90;;;;;;4995120;28;20193;-69
2022/08/24 12:44:17;;;;;;;1.53;1.10;;;9.10;99.90;;;;;;4995867;28;20189;-70
2022/08/24 12:46:53;;;;;;;5.57;1.33;;;9.10;99.90;;;;;;4980223;28;20221;-70
2022/08/24 12:49:27;;;;;;;1.43;1.10;;;9.00;99.90;;;;;;4959267;28;20186;-69
2022/08/24 12:52:29;;;;;;;2.60;1.10;;;8.90;99.90;;;;;;4994760;28;20572;-70
2022/08/24 12:55:37;;;;;;;2.60;1.10;;;8.80;99.90;;;;;;4992746;28;20177;-70
2022/08/24 12:58:30;;;;;;;4.60;1.47;;;8.80;99.90;;;;;;4943148;28;20237;-70
2022/08/24 13:01:02;;;;;;;3.83;1.43;;;8.70;99.90;;;;;;4984411;28;20189;-70
2022/08/24 13:03:34;;;;;;;1.93;1.30;;;8.70;99.90;;;;;;4994837;28;20655;-70
2022/08/24 13:06:06;;;;;;;2.00;1.43;;;8.60;99.90;;;;;;4983838;28;20231;-71
2022/08/24 13:08:45;;;;;;;2.70;1.60;;;8.60;99.90;;;;;;4975551;28;20306;-70
2022/08/24 13:11:31;;;;;;;3.60;1.60;;;8.50;99.90;;;;;;4975376;28;20258;-70
2022/08/24 13:13:58;;;;;;;3.60;1.70;;;8.50;99.90;;;;;;4994972;28;20184;-70
2022/08/24 13:16:57;;;;;;;3.03;1.50;;;8.40;99.90;;;;;;4980956;28;20190;-69
2022/08/24 13:19:27;;;;;;;2.90;1.47;;;8.40;99.90;;;;;;4953325;28;20605;-69
2022/08/24 13:22:29;;;;;;;2.20;1.60;;;8.40;99.90;;;;;;4975795;28;20267;-69
2022/08/24 13:25:17;;;;;;;4.03;1.90;;;8.30;99.90;;;;;;4976165;28;20266;-70
2022/08/24 13:27:48;;;;;;;4.20;1.53;;;8.40;99.90;;;;;;4994815;28;20182;-69
2022/08/24 13:30:25;;;;;;;4.73;2.07;;;8.30;99.90;;;;;;4976866;28;20552;-70
2022/08/24 13:33:03;;;;;;;2.13;1.40;;;8.30;99.90;;;;;;4994069;28;20186;-70
2022/08/24 13:35:40;;;;;;;3.40;1.73;;;8.30;99.90;;;;;;4987134;28;20184;-70
2022/08/24 13:38:41;;;;;;;4.60;1.87;;;8.20;99.90;;;;;;4975103;28;20211;-70
2022/08/24 13:41:09;;;;;;;4.47;2.03;;;8.20;99.90;;;;;;4974833;28;20207;-70
2022/08/24 13:43:58;;;;;;;2.60;2.03;;;8.20;99.90;;;;;;4974847;28;20175;-69
2022/08/24 13:46:46;;;;;;;4.63;2.30;;;8.20;99.90;;;;;;4973036;28;20196;-70